Time;durP1;ratioP1;P1;durP2;ratioP2;P2;SDS_P1;SDS_P2;PMS_P1;PMS_P2;Temp;Humidity;BMP_temperature;BMP_pressure;BME280_temperature;BME280_humidity;BME280_pressure;Samples;Min_cycle;Max_cycle;Signal;HPM_P1;HPM_P2
2021/04/06 04:48:22;;;;;;;5.15;2.13;;;;;;;;;;6274879;22;20338;-84
2021/04/06 04:50:47;;;;;;;7.05;2.35;;;;;;;;;;6247763;22;20018;-84
2021/04/06 04:53:13;;;;;;;9.02;2.60;;;;;;;;;;6247550;22;20086;-84
2021/04/06 04:55:39;;;;;;;7.35;1.80;;;;;;;;;;6247107;22;20082;-84
2021/04/06 04:58:04;;;;;;;7.68;2.17;;;;;;;;;;6274227;22;20000;-84
2021/04/06 05:00:30;;;;;;;10.00;2.28;;;;;;;;;;6246963;22;20385;-85
2021/04/06 05:02:56;;;;;;;7.03;1.98;;;;;;;;;;6247181;22;20030;-82
2021/04/06 05:05:22;;;;;;;3.88;1.70;;;;;;;;;;6274015;22;20004;-82
2021/04/06 05:07:47;;;;;;;6.50;2.25;;;;;;;;;;6247258;22;20004;-83
2021/04/06 05:10:14;;;;;;;8.60;2.60;;;;;;;;;;6247065;22;20341;-83
2021/04/06 05:12:40;;;;;;;12.68;3.47;;;;;;;;;;6274876;22;20495;-83
2021/04/06 05:15:09;;;;;;;6.43;2.35;;;;;;;;;;6247377;22;20007;-84
2021/04/06 05:17:35;;;;;;;6.78;2.97;;;;;;;;;;6247833;22;20015;-84
2021/04/06 05:20:01;;;;;;;6.05;2.50;;;;;;;;;;6247446;22;20389;-84
2021/04/06 05:22:26;;;;;;;14.07;2.97;;;;;;;;;;6247524;22;20448;-84
2021/04/06 05:24:52;;;;;;;10.93;2.40;;;;;;;;;;6247547;22;20090;-83
2021/04/06 05:27:18;;;;;;;13.88;3.20;;;;;;;;;;6274432;22;20025;-84
2021/04/06 05:29:43;;;;;;;6.95;3.17;;;;;;;;;;6247530;22;20101;-84
2021/04/06 05:32:09;;;;;;;7.07;2.22;;;;;;;;;;6247531;22;20011;-84
2021/04/06 05:34:35;;;;;;;8.60;3.22;;;;;;;;;;6274280;22;20094;-83
2021/04/06 05:37:01;;;;;;;5.80;2.17;;;;;;;;;;6247349;22;20007;-84
2021/04/06 05:39:26;;;;;;;8.38;2.85;;;;;;;;;;6274301;22;20587;-84
2021/04/06 05:41:52;;;;;;;8.70;2.88;;;;;;;;;;6273909;22;19907;-84
2021/04/06 05:44:18;;;;;;;9.38;2.78;;;;;;;;;;6247111;22;20086;-84
2021/04/06 05:46:45;;;;;;;7.82;3.13;;;;;;;;;;6247087;22;20012;-84
2021/04/06 05:49:12;;;;;;;12.45;6.03;;;;;;;;;;6246908;22;20020;-84
2021/04/06 05:51:38;;;;;;;17.05;3.83;;;;;;;;;;6247430;22;20004;-83
2021/04/06 05:54:05;;;;;;;14.35;4.22;;;;;;;;;;6274391;22;20086;-85
2021/04/06 05:56:31;;;;;;;8.65;3.97;;;;;;;;;;6246740;22;20004;-83
2021/04/06 05:58:58;;;;;;;9.50;3.13;;;;;;;;;;6246849;22;20049;-84
2021/04/06 06:01:28;;;;;;;11.90;3.05;;;;;;;;;;6274145;22;20000;-84
2021/04/06 06:03:53;;;;;;;8.63;3.20;;;;;;;;;;6274214;22;20003;-84
2021/04/06 06:06:19;;;;;;;12.18;3.55;;;;;;;;;;6246675;22;20008;-83
2021/04/06 06:08:47;;;;;;;9.15;3.15;;;;;;;;;;6274303;22;20027;-84
2021/04/06 06:11:12;;;;;;;7.82;3.70;;;;;;;;;;6274065;22;20460;-83
2021/04/06 06:13:38;;;;;;;11.50;3.30;;;;;;;;;;6246687;22;20004;-84
2021/04/06 06:16:08;;;;;;;8.27;3.15;;;;;;;;;;6246998;22;20082;-84
2021/04/06 06:18:51;;;;;;;11.68;3.72;;;;;;;;;;6247243;22;20007;-84
2021/04/06 06:21:16;;;;;;;10.98;3.63;;;;;;;;;;6247255;22;20003;-84
2021/04/06 06:23:42;;;;;;;8.23;2.90;;;;;;;;;;6274427;22;19907;-85
2021/04/06 06:26:08;;;;;;;7.57;3.25;;;;;;;;;;6247338;22;20008;-84
2021/04/06 06:28:37;;;;;;;6.22;2.55;;;;;;;;;;6247404;22;20003;-85
2021/04/06 06:31:03;;;;;;;8.35;3.03;;;;;;;;;;6247500;22;20031;-84
2021/04/06 06:33:31;;;;;;;9.00;3.45;;;;;;;;;;6274239;22;20025;-84
2021/04/06 06:35:56;;;;;;;11.95;4.20;;;;;;;;;;6274339;22;20031;-85
2021/04/06 06:38:31;;;;;;;9.65;3.40;;;;;;;;;;6247338;22;20000;-84
2021/04/06 06:40:57;;;;;;;14.27;5.00;;;;;;;;;;6275242;22;20004;-84
2021/04/06 06:43:24;;;;;;;21.42;9.10;;;;;;;;;;6247002;22;20003;-83
2021/04/06 06:45:51;;;;;;;64.88;32.17;;;;;;;;;;6275450;22;19996;-84
2021/04/06 06:48:27;;;;;;;41.85;21.83;;;;;;;;;;6248249;22;20388;-84
2021/04/06 06:50:52;;;;;;;31.08;17.92;;;;;;;;;;6276045;22;20445;-83
2021/04/06 06:53:36;;;;;;;28.48;15.05;;;;;;;;;;6273301;22;20006;-84
2021/04/06 06:56:03;;;;;;;69.22;32.97;;;;;;;;;;6250098;22;20012;-84
2021/04/06 06:58:32;;;;;;;48.22;23.70;;;;;;;;;;6277204;22;20003;-84
2021/04/06 07:00:59;;;;;;;35.35;17.42;;;;;;;;;;6278096;22;20003;-84
2021/04/06 07:03:25;;;;;;;87.25;41.85;;;;;;;;;;6251206;22;20000;-84
2021/04/06 07:05:50;;;;;;;121.55;45.60;;;;;;;;;;6252951;22;20007;-84
2021/04/06 07:08:28;;;;;;;154.90;53.88;;;;;;;;;;6279458;22;20392;-83
2021/04/06 07:10:54;;;;;;;109.10;45.05;;;;;;;;;;6251970;22;20007;-84
2021/04/06 07:13:21;;;;;;;96.35;35.33;;;;;;;;;;6252882;22;20003;-83
2021/04/06 07:15:48;;;;;;;178.18;65.07;;;;;;;;;;6253381;22;20011;-83
2021/04/06 07:50:14;;;;;;;8.13;3.28;;;;;;;;;;5114991;27;20355;-83
2021/04/06 07:52:40;;;;;;;13.15;3.25;;;;;;;;;;5098251;28;20028;-83
2021/04/06 07:55:06;;;;;;;17.30;3.60;;;;;;;;;;5092643;28;20031;-84
2021/04/06 07:57:42;;;;;;;7.45;2.67;;;;;;;;;;5092782;28;20024;-83
2021/04/06 08:00:08;;;;;;;8.95;3.30;;;;;;;;;;5090989;28;20499;-84
2021/04/06 08:02:42;;;;;;;13.48;3.47;;;;;;;;;;5098744;28;20110;-84
2021/04/06 08:05:08;;;;;;;12.57;3.25;;;;;;;;;;5104066;28;20450;-84
2021/04/06 08:07:34;;;;;;;11.18;2.72;;;;;;;;;;5104906;28;20043;-84
2021/04/06 08:10:03;;;;;;;12.25;3.70;;;;;;;;;;5101171;28;20031;-82
2021/04/06 08:12:30;;;;;;;13.60;3.65;;;;;;;;;;5092267;28;20430;-83
2021/04/06 08:15:00;;;;;;;7.97;3.13;;;;;;;;;;5078380;28;20468;-84
2021/04/06 08:17:26;;;;;;;10.60;3.58;;;;;;;;;;5079203;28;20020;-84
2021/04/06 08:19:52;;;;;;;11.50;3.60;;;;;;;;;;5079216;28;20086;-84
2021/04/06 08:22:18;;;;;;;9.43;3.45;;;;;;;;;;5088467;28;20032;-84
2021/04/06 08:24:44;;;;;;;11.20;5.07;;;;;;;;;;5104575;28;20491;-84
2021/04/06 08:27:32;;;;;;;10.98;4.40;;;;;;;;;;5097302;28;20020;-83
2021/04/06 08:30:21;;;;;;;6.45;2.58;;;;;;;;;;5105347;28;20030;-83
2021/04/06 08:32:59;;;;;;;9.73;3.47;;;;;;;;;;5102647;28;20024;-82
2021/04/06 08:35:52;;;;;;;8.38;3.80;;;;;;;;;;5099864;28;20020;-83
2021/04/06 08:38:25;;;;;;;9.00;3.65;;;;;;;;;;5093247;28;20024;-84
2021/04/06 08:40:54;;;;;;;14.23;4.28;;;;;;;;;;5109470;28;20024;-84
2021/04/06 08:43:23;;;;;;;9.25;3.38;;;;;;;;;;5093951;28;20028;-84
2021/04/06 08:45:55;;;;;;;7.93;3.20;;;;;;;;;;5098324;28;20020;-84
2021/04/06 08:48:40;;;;;;;10.25;3.15;;;;;;;;;;5096903;28;20025;-81
2021/04/06 08:51:25;;;;;;;11.35;3.65;;;;;;;;;;5091498;28;20055;-83
2021/04/06 08:53:54;;;;;;;9.90;4.22;;;;;;;;;;5090605;28;20031;-81
2021/04/06 08:56:22;;;;;;;6.75;2.90;;;;;;;;;;5095558;28;20020;-82
2021/04/06 08:58:48;;;;;;;8.27;3.97;;;;;;;;;;5088750;28;20027;-83
2021/04/06 09:01:14;;;;;;;10.32;3.33;;;;;;;;;;5082802;28;20044;-83
2021/04/06 09:03:40;;;;;;;11.38;3.80;;;;;;;;;;5085625;28;20055;-82
2021/04/06 09:06:05;;;;;;;9.18;3.33;;;;;;;;;;5086084;28;20028;-82
2021/04/06 09:08:51;;;;;;;7.20;2.70;;;;;;;;;;5089907;28;20016;-83
2021/04/06 09:11:19;;;;;;;7.35;2.72;;;;;;;;;;5084999;28;20040;-83
2021/04/06 09:13:45;;;;;;;9.25;2.97;;;;;;;;;;5085622;28;20012;-82
2021/04/06 09:16:11;;;;;;;7.68;2.83;;;;;;;;;;5085294;28;20048;-82
2021/04/06 09:18:40;;;;;;;10.48;2.78;;;;;;;;;;5085343;28;20035;-83
2021/04/06 09:21:07;;;;;;;14.05;3.53;;;;;;;;;;5085704;28;20028;-83
2021/04/06 09:23:34;;;;;;;7.13;2.47;;;;;;;;;;5083767;28;20091;-82
2021/04/06 09:26:02;;;;;;;7.15;2.75;;;;;;;;;;5067080;28;20025;-83
2021/04/06 09:28:28;;;;;;;7.55;3.10;;;;;;;;;;5071840;28;20034;-83
2021/04/06 09:30:54;;;;;;;7.93;3.70;;;;;;;;;;5070217;28;20462;-83
2021/04/06 09:35:52;;;;;;;10.50;3.35;;;;;;;;;;5075582;28;20364;-84
2021/04/06 09:38:39;;;;;;;11.70;3.90;;;;;;;;;;5056299;28;20425;-83
2021/04/06 09:41:04;;;;;;;10.40;2.72;;;;;;;;;;5053406;28;20102;-83
2021/04/06 09:43:33;;;;;;;10.60;3.20;;;;;;;;;;5058158;28;20354;-84
2021/04/06 09:46:06;;;;;;;10.10;3.10;;;;;;;;;;5047461;28;20052;-84
2021/04/06 09:48:32;;;;;;;6.35;2.50;;;;;;;;;;5055217;28;20033;-84
2021/04/06 09:51:04;;;;;;;7.35;2.75;;;;;;;;;;5047776;28;20017;-84
2021/04/06 09:53:46;;;;;;;8.77;2.75;;;;;;;;;;5046992;28;20235;-84
2021/04/06 09:59:07;;;;;;;6.32;1.92;;;;;;;;;;5048463;28;20532;-83
2021/04/06 10:01:40;;;;;;;7.50;2.30;;;;;;;;;;5049284;28;20017;-84
2021/04/06 10:04:06;;;;;;;12.00;2.42;;;;;;;;;;5048190;28;20095;-83
2021/04/06 10:06:40;;;;;;;11.65;2.47;;;;;;;;;;5052118;28;20396;-84
2021/04/06 10:09:21;;;;;;;7.47;2.20;;;;;;;;;;5049099;28;20075;-81
2021/04/06 10:11:50;;;;;;;7.80;2.35;;;;;;;;;;5040580;28;20033;-81
2021/04/06 10:14:16;;;;;;;5.30;2.20;;;;;;;;;;5047742;28;20028;-81
2021/04/06 10:16:42;;;;;;;6.65;2.00;;;;;;;;;;5051175;28;20052;-81
2021/04/06 10:19:40;;;;;;;7.60;3.38;;;;;;;;;;5047497;28;20025;-81
2021/04/06 10:22:13;;;;;;;10.00;1.98;;;;;;;;;;5030342;28;20033;-81
2021/04/06 10:24:53;;;;;;;7.13;2.05;;;;;;;;;;5047141;28;20454;-82
2021/04/06 10:27:25;;;;;;;8.73;2.25;;;;;;;;;;5050893;28;20051;-82
2021/04/06 10:29:52;;;;;;;5.97;2.92;;;;;;;;;;5048090;28;20091;-82
2021/04/06 10:32:39;;;;;;;7.03;2.55;;;;;;;;;;5048994;28;20028;-82
2021/04/06 10:35:07;;;;;;;6.18;2.17;;;;;;;;;;5048324;28;20051;-81
2021/04/06 10:37:42;;;;;;;6.65;1.73;;;;;;;;;;5045950;28;20029;-81
2021/04/06 10:40:26;;;;;;;5.57;2.15;;;;;;;;;;5049886;28;20025;-81
2021/04/06 10:45:12;;;;;;;6.32;1.85;;;;;;;;;;5063811;28;20408;-81
2021/04/06 10:47:38;;;;;;;5.05;2.00;;;;;;;;;;5054751;28;20029;-82
2021/04/06 10:50:04;;;;;;;5.00;1.70;;;;;;;;;;5056852;28;20029;-83
2021/04/06 10:52:31;;;;;;;5.38;1.77;;;;;;;;;;5055590;28;20079;-82
2021/04/06 10:54:57;;;;;;;8.85;2.08;;;;;;;;;;5057034;28;20032;-82
2021/04/06 10:57:27;;;;;;;3.53;1.30;;;;;;;;;;5056800;28;20048;-82
2021/04/06 10:59:53;;;;;;;7.53;1.50;;;;;;;;;;5058757;28;20025;-82
2021/04/06 11:02:20;;;;;;;6.40;2.10;;;;;;;;;;5083870;22;20025;-76
2021/04/06 11:04:46;;;;;;;5.43;2.10;;;;;;;;;;5057258;28;20033;-76
2021/04/06 11:07:11;;;;;;;6.80;1.80;;;;;;;;;;5058429;28;20051;-76
2021/04/06 11:09:42;;;;;;;6.78;1.80;;;;;;;;;;5054387;28;20029;-77
2021/04/06 11:12:08;;;;;;;6.07;1.95;;;;;;;;;;5053382;28;20033;-77
2021/04/06 11:14:35;;;;;;;4.15;1.90;;;;;;;;;;5056313;28;20023;-77
2021/04/06 11:19:26;;;;;;;6.25;2.00;;;;;;;;;;5059103;28;20436;-77
2021/04/06 11:21:53;;;;;;;4.70;1.92;;;;;;;;;;5057136;28;20044;-77
2021/04/06 11:24:20;;;;;;;5.90;1.88;;;;;;;;;;5060097;28;20080;-77
2021/04/06 11:26:46;;;;;;;6.88;1.60;;;;;;;;;;5055364;28;20021;-77
2021/04/06 11:29:13;;;;;;;4.20;2.22;;;;;;;;;;5059119;28;20392;-77
2021/04/06 11:31:40;;;;;;;10.57;1.80;;;;;;;;;;5062763;28;20057;-77
2021/04/06 11:34:07;;;;;;;6.32;2.20;;;;;;;;;;5063755;28;20028;-76
2021/04/06 11:36:33;;;;;;;5.20;2.08;;;;;;;;;;5059829;28;20039;-77
2021/04/06 11:38:59;;;;;;;8.15;3.70;;;;;;;;;;5056850;28;20020;-77
2021/04/06 11:41:25;;;;;;;7.63;2.45;;;;;;;;;;5054343;28;20025;-77
2021/04/06 11:43:50;;;;;;;5.35;3.13;;;;;;;;;;5051119;28;20013;-76
2021/04/06 11:46:17;;;;;;;6.25;2.20;;;;;;;;;;5050233;28;22172;-77
2021/04/06 11:48:43;;;;;;;6.00;2.33;;;;;;;;;;5048090;28;20013;-76
2021/04/06 11:51:09;;;;;;;9.18;3.78;;;;;;;;;;5048539;28;20032;-77
2021/04/06 11:53:35;;;;;;;8.20;3.30;;;;;;;;;;5047378;28;20033;-76
2021/04/06 11:56:00;;;;;;;7.85;3.67;;;;;;;;;;5051441;28;20033;-75
2021/04/06 11:58:26;;;;;;;7.07;2.60;;;;;;;;;;5059246;28;20017;-79
2021/04/06 12:00:52;;;;;;;12.13;3.58;;;;;;;;;;5050206;28;20017;-78
2021/04/06 12:03:18;;;;;;;7.13;2.60;;;;;;;;;;5049735;28;20025;-79
2021/04/06 12:05:43;;;;;;;6.43;2.35;;;;;;;;;;5055400;28;20494;-76
2021/04/06 12:10:29;;;;;;;5.10;2.35;;;;;;;;;;5105011;27;20357;-77
2021/04/06 12:12:55;;;;;;;6.95;2.90;;;;;;;;;;5100217;28;20020;-78
2021/04/06 12:15:20;;;;;;;5.90;2.55;;;;;;;;;;5096227;28;20058;-78
2021/04/06 12:17:49;;;;;;;5.70;1.92;;;;;;;;;;5097307;28;20024;-78
2021/04/06 12:20:15;;;;;;;6.85;2.83;;;;;;;;;;5098377;28;20024;-79
2021/04/06 12:22:41;;;;;;;8.07;2.60;;;;;;;;;;5094948;28;20419;-77
2021/04/06 12:25:07;;;;;;;5.90;2.08;;;;;;;;;;5096524;28;20102;-78
2021/04/06 12:27:32;;;;;;;9.98;2.10;;;;;;;;;;5102598;28;20032;-78
2021/04/06 12:29:58;;;;;;;4.80;2.03;;;;;;;;;;5098936;28;20020;-79
2021/04/06 12:32:24;;;;;;;5.25;1.95;;;;;;;;;;5100921;28;20111;-80
2021/04/06 12:34:49;;;;;;;4.53;1.48;;;;;;;;;;5094693;28;20031;-79
2021/04/06 12:37:15;;;;;;;4.65;1.40;;;;;;;;;;5099311;28;20126;-79
2021/04/06 12:39:41;;;;;;;7.47;1.52;;;;;;;;;;5100983;28;20482;-80
2021/04/06 12:42:07;;;;;;;5.10;1.70;;;;;;;;;;5097640;28;20029;-79
2021/04/06 12:44:33;;;;;;;5.65;1.65;;;;;;;;;;5102352;28;20016;-78
2021/04/06 12:46:58;;;;;;;6.38;1.35;;;;;;;;;;5094527;28;20024;-79
2021/04/06 12:49:25;;;;;;;5.80;1.55;;;;;;;;;;5098920;28;20106;-78
2021/04/06 12:51:51;;;;;;;4.75;1.50;;;;;;;;;;5092648;28;20020;-79
2021/04/06 12:54:17;;;;;;;4.90;1.27;;;;;;;;;;5097989;28;20039;-79
2021/04/06 12:56:42;;;;;;;6.85;1.50;;;;;;;;;;5093869;28;20090;-78
2021/04/06 12:59:08;;;;;;;9.63;1.98;;;;;;;;;;5098875;28;20032;-78
2021/04/06 13:01:35;;;;;;;4.47;1.30;;;;;;;;;;5090737;28;20020;-80
2021/04/06 13:04:01;;;;;;;5.45;3.05;;;;;;;;;;5092185;28;20039;-78
2021/04/06 13:06:26;;;;;;;6.95;2.28;;;;;;;;;;5097528;28;20450;-77
2021/04/06 13:08:52;;;;;;;5.32;1.90;;;;;;;;;;5105022;28;20100;-75
2021/04/06 13:11:18;;;;;;;3.80;1.80;;;;;;;;;;5106636;28;20016;-79
2021/04/06 13:16:02;;;;;;;10.65;3.22;;;;;;;;;;5111280;27;20380;-77
2021/04/06 13:18:29;;;;;;;4.63;1.77;;;;;;;;;;5109904;28;20054;-77
2021/04/06 13:20:55;;;;;;;3.67;1.80;;;;;;;;;;5107853;28;20123;-76
2021/04/06 13:23:20;;;;;;;4.32;1.45;;;;;;;;;;5102196;28;20023;-78
2021/04/06 13:25:46;;;;;;;3.47;1.15;;;;;;;;;;5092823;28;20084;-78
2021/04/06 13:28:12;;;;;;;4.85;1.42;;;;;;;;;;5101011;28;20111;-77
2021/04/06 13:30:37;;;;;;;2.42;1.10;;;;;;;;;;5093937;28;20024;-76
2021/04/06 13:33:03;;;;;;;4.53;1.00;;;;;;;;;;5095977;28;20047;-77
2021/04/06 13:35:29;;;;;;;4.53;1.20;;;;;;;;;;5089613;28;20041;-77
2021/04/06 13:37:55;;;;;;;3.80;1.10;;;;;;;;;;5096497;28;20036;-76
2021/04/06 13:40:22;;;;;;;4.80;1.40;;;;;;;;;;5100298;28;20131;-77
2021/04/06 13:42:48;;;;;;;3.05;1.27;;;;;;;;;;5098630;28;20013;-77
2021/04/06 13:45:15;;;;;;;3.78;1.27;;;;;;;;;;5100071;28;20129;-75
2021/04/06 13:47:40;;;;;;;4.72;1.33;;;;;;;;;;5099229;28;20028;-77
2021/04/06 13:52:25;;;;;;;4.93;1.10;;;;;;;;;;5117215;27;20400;-77
2021/04/06 13:54:51;;;;;;;4.63;1.65;;;;;;;;;;5095848;28;20028;-77
2021/04/06 13:57:20;;;;;;;2.78;1.13;;;;;;;;;;5091951;28;20024;-78
2021/04/06 13:59:46;;;;;;;4.55;2.40;;;;;;;;;;5091228;28;20031;-77
2021/04/06 14:02:12;;;;;;;3.85;1.42;;;;;;;;;;5092635;28;20064;-76
2021/04/06 14:04:37;;;;;;;2.90;1.10;;;;;;;;;;5094101;28;20012;-77
2021/04/06 14:07:03;;;;;;;4.03;1.05;;;;;;;;;;5094311;28;20079;-77
2021/04/06 14:09:28;;;;;;;4.20;1.35;;;;;;;;;;5096594;28;20484;-75
2021/04/06 14:11:54;;;;;;;7.43;1.80;;;;;;;;;;5093788;28;20033;-76
2021/04/06 14:14:20;;;;;;;6.55;1.90;;;;;;;;;;5092919;28;20046;-77
2021/04/06 14:16:45;;;;;;;4.50;1.83;;;;;;;;;;5092026;28;20087;-77
2021/04/06 14:19:11;;;;;;;8.05;2.05;;;;;;;;;;5096135;28;20027;-74
2021/04/06 14:21:37;;;;;;;6.82;1.42;;;;;;;;;;5095343;28;20028;-77
2021/04/06 14:24:02;;;;;;;5.88;1.90;;;;;;;;;;5091751;28;20024;-76
2021/04/06 14:26:28;;;;;;;5.28;1.63;;;;;;;;;;5092402;28;20040;-78
2021/04/06 14:28:54;;;;;;;5.82;1.00;;;;;;;;;;5091704;28;20442;-78
2021/04/06 14:31:20;;;;;;;4.93;1.77;;;;;;;;;;5092452;28;20081;-77
2021/04/06 14:33:46;;;;;;;6.53;1.48;;;;;;;;;;5094872;28;20082;-78
2021/04/06 14:36:13;;;;;;;4.97;1.23;;;;;;;;;;5092578;28;20452;-76
2021/04/06 14:40:58;;;;;;;5.00;1.50;;;;;;;;;;5115576;27;20381;-77
2021/04/06 14:43:26;;;;;;;5.95;1.48;;;;;;;;;;5102421;28;20020;-77
2021/04/06 14:45:52;;;;;;;4.82;1.45;;;;;;;;;;5095539;28;20024;-75
2021/04/06 14:48:18;;;;;;;9.65;4.50;;;;;;;;;;5093875;28;20081;-76
2021/04/06 14:50:45;;;;;;;5.20;1.92;;;;;;;;;;5102090;28;20021;-76
2021/04/06 14:53:10;;;;;;;13.32;6.15;;;;;;;;;;5100555;28;20036;-76
2021/04/06 14:55:37;;;;;;;5.15;2.40;;;;;;;;;;5089641;28;20458;-75
2021/04/06 15:00:20;;;;;;;4.25;1.80;;;;;;;;;;5105068;27;20688;-76
2021/04/06 15:02:47;;;;;;;3.42;1.67;;;;;;;;;;5098438;28;20070;-74
2021/04/06 15:05:13;;;;;;;3.35;1.63;;;;;;;;;;5100180;28;20379;-77
2021/04/06 15:07:39;;;;;;;3.53;1.10;;;;;;;;;;5097716;28;20056;-76
2021/04/06 15:10:06;;;;;;;4.88;1.10;;;;;;;;;;5098862;28;20073;-77
2021/04/06 15:12:33;;;;;;;2.50;1.23;;;;;;;;;;5095500;28;20032;-76
2021/04/06 15:14:59;;;;;;;3.60;1.05;;;;;;;;;;5102627;28;20080;-76
2021/04/06 15:17:25;;;;;;;2.47;1.13;;;;;;;;;;5099693;28;20016;-76
2021/04/06 15:19:54;;;;;;;2.47;0.98;;;;;;;;;;5097488;28;20476;-76
2021/04/06 15:22:22;;;;;;;3.20;1.20;;;;;;;;;;5099988;28;20423;-75
2021/04/06 15:24:48;;;;;;;3.65;1.65;;;;;;;;;;5093576;28;20024;-76
2021/04/06 15:27:14;;;;;;;3.10;1.50;;;;;;;;;;5103647;28;20020;-77
2021/04/06 15:29:39;;;;;;;3.50;1.80;;;;;;;;;;5096212;28;20459;-76
2021/04/06 15:32:05;;;;;;;8.02;2.70;;;;;;;;;;5099462;28;20020;-76
2021/04/06 15:34:33;;;;;;;3.90;1.50;;;;;;;;;;5113046;28;20048;-75
2021/04/06 15:36:59;;;;;;;9.75;4.63;;;;;;;;;;5107247;28;20022;-75
2021/04/06 15:39:26;;;;;;;6.53;2.25;;;;;;;;;;5104504;28;20080;-77
2021/04/06 15:41:54;;;;;;;5.93;2.17;;;;;;;;;;5107384;28;20019;-76
2021/04/06 15:44:20;;;;;;;11.25;4.80;;;;;;;;;;5105567;28;20103;-78
2021/04/06 15:46:46;;;;;;;13.25;4.70;;;;;;;;;;5111516;28;20034;-76
2021/04/06 15:49:17;;;;;;;12.10;6.35;;;;;;;;;;5108838;28;20028;-75
2021/04/06 15:51:49;;;;;;;5.70;1.70;;;;;;;;;;5110746;28;20165;-75
2021/04/06 15:54:15;;;;;;;80.32;35.28;;;;;;;;;;5106517;28;20047;-77
2021/04/06 15:56:41;;;;;;;13.32;6.15;;;;;;;;;;5105021;28;20395;-76
2021/04/06 16:01:24;;;;;;;6.65;3.05;;;;;;;;;;5115891;27;20369;-77
2021/04/06 16:03:50;;;;;;;7.30;3.10;;;;;;;;;;5085927;28;20460;-77
2021/04/06 16:06:16;;;;;;;4.57;1.88;;;;;;;;;;5082229;28;20035;-76
2021/04/06 16:08:42;;;;;;;4.38;1.80;;;;;;;;;;5086544;28;20032;-77
2021/04/06 16:11:09;;;;;;;4.93;1.58;;;;;;;;;;5085414;28;20024;-77
2021/04/06 16:13:35;;;;;;;4.53;1.67;;;;;;;;;;5086943;28;20357;-76
2021/04/06 16:16:00;;;;;;;4.55;1.50;;;;;;;;;;5087016;28;20027;-77
2021/04/06 16:18:26;;;;;;;5.00;1.90;;;;;;;;;;5091551;28;20028;-76
2021/04/06 16:20:52;;;;;;;6.90;2.33;;;;;;;;;;5099580;28;20008;-77
2021/04/06 16:23:18;;;;;;;5.45;2.78;;;;;;;;;;5091143;28;20158;-76
2021/04/06 16:25:44;;;;;;;3.50;1.65;;;;;;;;;;5089329;28;20036;-75
2021/04/06 16:28:11;;;;;;;4.72;1.73;;;;;;;;;;5088697;28;20378;-76
2021/04/06 16:30:41;;;;;;;5.63;1.67;;;;;;;;;;5097453;28;20062;-76
2021/04/06 16:33:11;;;;;;;5.45;2.20;;;;;;;;;;5092560;28;20258;-77
2021/04/06 16:35:38;;;;;;;5.65;2.10;;;;;;;;;;5090668;28;20440;-77
2021/04/06 16:38:04;;;;;;;7.90;2.30;;;;;;;;;;5091031;28;20110;-76
2021/04/06 16:40:29;;;;;;;8.95;3.95;;;;;;;;;;5085004;28;20036;-74
2021/04/06 16:42:56;;;;;;;8.90;3.03;;;;;;;;;;5084661;28;20537;-76
2021/04/06 16:45:21;;;;;;;5.28;2.60;;;;;;;;;;5088025;28;20036;-76
2021/04/06 16:47:47;;;;;;;7.97;3.30;;;;;;;;;;5088359;28;20028;-75
2021/04/06 16:50:13;;;;;;;9.00;2.90;;;;;;;;;;5084659;28;20028;-75
2021/04/06 16:52:39;;;;;;;8.65;4.25;;;;;;;;;;5085982;28;20020;-77
2021/04/06 16:55:05;;;;;;;8.52;4.30;;;;;;;;;;5080275;28;20476;-77
2021/04/06 16:57:30;;;;;;;4.65;2.53;;;;;;;;;;5079963;28;20055;-77
2021/04/06 16:59:56;;;;;;;8.32;2.15;;;;;;;;;;5090744;28;20036;-76
2021/04/06 17:02:22;;;;;;;3.35;1.63;;;;;;;;;;5084232;28;20108;-77
2021/04/06 17:04:48;;;;;;;3.97;2.17;;;;;;;;;;5082986;28;20028;-76
2021/04/06 17:07:13;;;;;;;3.65;1.77;;;;;;;;;;5087125;28;20431;-74
2021/04/06 17:09:39;;;;;;;6.63;3.75;;;;;;;;;;5082597;28;20075;-77
2021/04/06 17:12:08;;;;;;;9.88;5.65;;;;;;;;;;5074871;28;20032;-77
2021/04/06 17:14:34;;;;;;;8.60;4.05;;;;;;;;;;5071918;28;21621;-76
2021/04/06 17:16:59;;;;;;;7.78;4.80;;;;;;;;;;5072497;28;20028;-77
2021/04/06 17:19:25;;;;;;;6.38;3.17;;;;;;;;;;5070527;28;20025;-76
2021/04/06 17:21:51;;;;;;;4.55;2.22;;;;;;;;;;5062141;28;20560;-77
2021/04/06 17:24:16;;;;;;;5.90;2.70;;;;;;;;;;5067013;28;20412;-76
2021/04/06 17:26:42;;;;;;;4.35;2.30;;;;;;;;;;5065885;28;20391;-76
2021/04/06 17:29:08;;;;;;;9.25;5.03;;;;;;;;;;5067889;28;20082;-76
2021/04/06 17:31:34;;;;;;;9.90;4.60;;;;;;;;;;5073841;28;20046;-77
2021/04/06 17:33:59;;;;;;;7.40;3.47;;;;;;;;;;5069089;28;20016;-77
2021/04/06 17:36:25;;;;;;;6.25;2.88;;;;;;;;;;5073704;28;20024;-77
2021/04/06 17:38:51;;;;;;;5.60;3.25;;;;;;;;;;5064646;28;20025;-75
2021/04/06 17:41:17;;;;;;;8.43;3.40;;;;;;;;;;5070730;28;20064;-76
2021/04/06 17:43:44;;;;;;;4.85;2.90;;;;;;;;;;5067942;28;20046;-76
2021/04/06 17:46:11;;;;;;;4.20;2.20;;;;;;;;;;5069515;28;20023;-76
2021/04/06 17:48:38;;;;;;;6.25;1.98;;;;;;;;;;5073099;28;20034;-76
2021/04/06 17:51:04;;;;;;;3.55;1.50;;;;;;;;;;5066552;28;20484;-77
2021/04/06 17:53:30;;;;;;;4.68;1.40;;;;;;;;;;5070578;28;20032;-77
2021/04/06 17:55:55;;;;;;;4.85;2.03;;;;;;;;;;5064698;28;20421;-76
2021/04/06 18:00:44;;;;;;;3.22;2.00;;;;;;;;;;5064265;28;20391;-76
2021/04/06 18:03:11;;;;;;;4.43;1.80;;;;;;;;;;5048299;28;20036;-77
2021/04/06 18:05:37;;;;;;;4.40;1.90;;;;;;;;;;5047307;28;20091;-76
2021/04/06 18:08:05;;;;;;;5.22;2.05;;;;;;;;;;5048532;28;20466;-75
2021/04/06 18:10:31;;;;;;;4.88;2.30;;;;;;;;;;5053873;28;20095;-75
2021/04/06 18:12:58;;;;;;;4.07;1.60;;;;;;;;;;5056223;28;20119;-75
2021/04/06 18:15:24;;;;;;;3.33;1.98;;;;;;;;;;5055081;28;20018;-76
2021/04/06 18:17:50;;;;;;;2.92;1.50;;;;;;;;;;5056299;28;20104;-75
2021/04/06 18:22:34;;;;;;;3.90;1.63;;;;;;;;;;5110535;27;20411;-76
2021/04/06 18:25:00;;;;;;;3.13;1.48;;;;;;;;;;5103447;28;20043;-76
2021/04/06 18:27:26;;;;;;;2.60;1.38;;;;;;;;;;5096487;28;20026;-76
2021/04/06 18:29:52;;;;;;;4.15;2.60;;;;;;;;;;5092613;28;20391;-76
2021/04/06 18:32:17;;;;;;;6.63;3.80;;;;;;;;;;5098997;28;20055;-76
2021/04/06 18:34:43;;;;;;;5.60;2.70;;;;;;;;;;5095224;28;20032;-76
2021/04/06 18:37:09;;;;;;;5.80;2.33;;;;;;;;;;5090669;28;20394;-76
2021/04/06 18:39:37;;;;;;;4.30;2.53;;;;;;;;;;5098639;28;20030;-76
2021/04/06 18:42:03;;;;;;;5.68;1.95;;;;;;;;;;5087802;28;20024;-76
2021/04/06 18:44:29;;;;;;;7.07;2.08;;;;;;;;;;5091210;28;20555;-76
2021/04/06 18:46:55;;;;;;;3.13;1.75;;;;;;;;;;5098033;28;20031;-76
2021/04/06 18:49:21;;;;;;;2.72;1.60;;;;;;;;;;5091113;28;20089;-76
2021/04/06 18:51:46;;;;;;;6.05;2.17;;;;;;;;;;5091844;28;20028;-76
2021/04/06 18:54:15;;;;;;;4.43;2.58;;;;;;;;;;5094907;28;20066;-76
2021/04/06 18:56:40;;;;;;;4.93;2.20;;;;;;;;;;5100878;28;20185;-76
2021/04/06 18:59:06;;;;;;;5.35;1.98;;;;;;;;;;5100415;28;20027;-76
2021/04/06 19:01:32;;;;;;;9.93;3.63;;;;;;;;;;5099387;28;20026;-76
2021/04/06 19:03:58;;;;;;;7.85;3.13;;;;;;;;;;5095441;28;20032;-76
2021/04/06 19:06:24;;;;;;;7.07;3.08;;;;;;;;;;5098520;28;21140;-75
2021/04/06 19:08:50;;;;;;;8.90;3.03;;;;;;;;;;5097213;28;20027;-75
2021/04/06 19:11:16;;;;;;;9.98;6.07;;;;;;;;;;5100394;28;20028;-75
2021/04/06 19:13:42;;;;;;;6.82;4.13;;;;;;;;;;5090576;28;20025;-75
2021/04/06 19:16:08;;;;;;;7.32;3.45;;;;;;;;;;5095973;28;20043;-76
2021/04/06 19:18:34;;;;;;;8.77;4.38;;;;;;;;;;5097618;28;20050;-76
2021/04/06 19:21:02;;;;;;;6.88;3.80;;;;;;;;;;5092524;28;20042;-76
2021/04/06 19:23:28;;;;;;;5.38;3.03;;;;;;;;;;5089716;28;20044;-76
2021/04/06 19:25:54;;;;;;;5.80;2.28;;;;;;;;;;5087007;28;20057;-76
2021/04/06 19:28:20;;;;;;;7.53;2.83;;;;;;;;;;5092480;28;20404;-76
2021/04/06 19:30:46;;;;;;;6.72;3.03;;;;;;;;;;5094584;28;20024;-76
2021/04/06 19:33:12;;;;;;;6.38;3.15;;;;;;;;;;5096822;28;20294;-76
2021/04/06 19:35:38;;;;;;;5.93;3.10;;;;;;;;;;5080501;28;20066;-76
2021/04/06 19:38:04;;;;;;;4.38;2.05;;;;;;;;;;5089579;28;20031;-76
2021/04/06 19:40:30;;;;;;;5.50;2.58;;;;;;;;;;5083617;28;20032;-75
2021/04/06 19:42:56;;;;;;;7.43;3.92;;;;;;;;;;5082077;28;20032;-76
2021/04/06 19:45:22;;;;;;;6.57;3.00;;;;;;;;;;5069528;28;20025;-76
2021/04/06 19:47:49;;;;;;;6.53;2.83;;;;;;;;;;5085429;28;20031;-75
2021/04/06 19:50:16;;;;;;;7.60;3.58;;;;;;;;;;5087157;28;20085;-76
2021/04/06 19:52:43;;;;;;;4.28;2.28;;;;;;;;;;5091038;28;20070;-75
2021/04/06 19:55:10;;;;;;;4.28;1.90;;;;;;;;;;5075808;28;20477;-76
2021/04/06 19:57:36;;;;;;;5.68;1.75;;;;;;;;;;5075459;28;20538;-75
2021/04/06 20:00:02;;;;;;;5.70;2.25;;;;;;;;;;5078965;28;20028;-75
2021/04/06 20:02:27;;;;;;;6.72;3.90;;;;;;;;;;5090891;28;20099;-76
2021/04/06 20:04:53;;;;;;;10.52;5.97;;;;;;;;;;5082371;28;20025;-76
2021/04/06 20:07:19;;;;;;;7.45;4.30;;;;;;;;;;5079599;28;20025;-76
2021/04/06 20:09:45;;;;;;;16.30;7.95;;;;;;;;;;5077918;28;20024;-75
2021/04/06 20:12:11;;;;;;;12.00;6.57;;;;;;;;;;5080442;28;20601;-76
2021/04/06 20:14:37;;;;;;;13.75;5.70;;;;;;;;;;5086096;28;20029;-76
2021/04/06 20:17:03;;;;;;;10.70;5.85;;;;;;;;;;5080397;28;20024;-76
2021/04/06 20:19:28;;;;;;;10.20;5.65;;;;;;;;;;5084393;28;20040;-76
2021/04/06 20:21:55;;;;;;;8.80;4.18;;;;;;;;;;5085247;28;20040;-76
2021/04/06 20:24:21;;;;;;;10.68;4.75;;;;;;;;;;5074651;28;20570;-76
2021/04/06 20:26:48;;;;;;;5.00;2.95;;;;;;;;;;5080672;28;20028;-76
2021/04/06 20:29:16;;;;;;;6.93;3.13;;;;;;;;;;5084795;28;20024;-76